Time;durP1;ratioP1;P1;durP2;ratioP2;P2;SDS_P1;SDS_P2;PMS_P1;PMS_P2;Temp;Humidity;BMP_temperature;BMP_pressure;BME280_temperature;BME280_humidity;BME280_pressure;Samples;Min_cycle;Max_cycle;Signal;HPM_P1;HPM_P2
2021/01/01 05:01:48;;;;;;;23.45;15.20;;;2.80;99.90;;;;;;5357738;23;20281;-71
2021/01/01 05:04:14;;;;;;;21.40;15.65;;;2.80;99.90;;;;;;4974962;28;20209;-71
2021/01/01 05:06:41;;;;;;;26.58;16.60;;;2.80;99.90;;;;;;4974600;28;20212;-71
2021/01/01 05:09:08;;;;;;;22.17;14.77;;;2.70;99.90;;;;;;4974948;28;20274;-71
2021/01/01 05:11:34;;;;;;;24.25;15.88;;;2.70;99.90;;;;;;4962114;28;20379;-71
2021/01/01 05:14:02;;;;;;;24.08;16.42;;;2.70;99.90;;;;;;4954731;29;20661;-71
2021/01/01 05:16:28;;;;;;;25.10;15.55;;;2.60;99.90;;;;;;4955519;28;20614;-72
2021/01/01 05:18:56;;;;;;;35.22;17.23;;;2.60;99.90;;;;;;4955344;28;20209;-72
2021/01/01 05:21:23;;;;;;;24.90;15.40;;;2.60;99.90;;;;;;4955374;29;20259;-72
2021/01/01 05:23:50;;;;;;;25.60;16.30;;;2.60;99.90;;;;;;4954611;29;20573;-72
2021/01/01 05:26:18;;;;;;;29.15;16.88;;;2.70;99.90;;;;;;4947863;29;20577;-70
2021/01/01 05:29:03;;;;;;;28.63;16.77;;;2.70;99.90;;;;;;4954948;28;20681;-70
2021/01/01 05:31:30;;;;;;;28.15;17.20;;;2.70;99.90;;;;;;4955330;28;20224;-70
2021/01/01 05:34:01;;;;;;;27.40;16.13;;;2.70;99.90;;;;;;4955124;28;20209;-70
2021/01/01 05:36:36;;;;;;;26.60;15.90;;;2.70;99.90;;;;;;4951934;29;20260;-70
2021/01/01 05:39:06;;;;;;;24.60;17.80;;;2.70;99.90;;;;;;4954697;28;20220;-70
2021/01/01 05:41:34;;;;;;;23.33;15.18;;;2.70;99.90;;;;;;4961116;28;20240;-72
2021/01/01 05:44:08;;;;;;;24.67;15.07;;;2.70;99.90;;;;;;4960164;28;20209;-72
2021/01/01 05:46:34;;;;;;;26.27;16.27;;;2.70;99.90;;;;;;4957512;29;20272;-72
2021/01/01 05:49:02;;;;;;;28.65;17.08;;;2.70;99.90;;;;;;4961084;28;20654;-72
2021/01/01 05:51:28;;;;;;;27.55;17.25;;;2.70;99.90;;;;;;4961533;28;20221;-72
2021/01/01 05:54:10;;;;;;;25.45;16.45;;;2.70;99.90;;;;;;4961262;28;20209;-72
2021/01/01 05:56:37;;;;;;;27.55;15.70;;;2.80;99.90;;;;;;4956600;28;20759;-72
2021/01/01 05:59:06;;;;;;;26.92;15.73;;;2.70;99.90;;;;;;4961356;28;20367;-73
2021/01/01 06:01:35;;;;;;;24.17;15.77;;;2.70;99.90;;;;;;4937843;29;20234;-72
2021/01/01 06:04:03;;;;;;;24.98;15.45;;;2.80;99.90;;;;;;4946194;29;20240;-72
2021/01/01 06:06:33;;;;;;;27.90;16.73;;;2.70;99.90;;;;;;4954144;28;20208;-71
2021/01/01 06:09:03;;;;;;;25.42;15.57;;;2.70;99.90;;;;;;4953794;28;20576;-72
2021/01/01 06:11:35;;;;;;;28.20;16.50;;;2.80;99.90;;;;;;4954441;28;20225;-71
2021/01/01 06:14:04;;;;;;;25.33;16.30;;;2.80;99.90;;;;;;4953609;28;20626;-72
2021/01/01 06:16:37;;;;;;;26.05;15.90;;;2.80;99.90;;;;;;4954101;28;20236;-72
2021/01/01 06:19:11;;;;;;;28.08;15.60;;;2.80;99.90;;;;;;4954093;28;20206;-72
2021/01/01 06:21:42;;;;;;;25.55;16.00;;;2.80;99.90;;;;;;4953189;28;20260;-71
2021/01/01 06:24:13;;;;;;;27.67;16.27;;;2.80;99.90;;;;;;4953450;28;20212;-72
2021/01/01 06:26:43;;;;;;;24.65;15.60;;;2.80;99.90;;;;;;4954049;29;20200;-70
2021/01/01 06:29:11;;;;;;;27.83;16.70;;;2.90;99.90;;;;;;4954302;28;20220;-70
2021/01/01 06:31:39;;;;;;;27.63;16.50;;;2.90;99.90;;;;;;4953817;28;20222;-71
2021/01/01 06:34:24;;;;;;;29.08;17.05;;;2.90;99.90;;;;;;4954005;28;20236;-72
2021/01/01 06:36:50;;;;;;;23.60;15.40;;;2.90;99.90;;;;;;4951550;29;20622;-72
2021/01/01 06:39:36;;;;;;;31.40;16.80;;;2.90;99.90;;;;;;4953834;28;20229;-72
2021/01/01 06:42:03;;;;;;;29.45;17.05;;;2.90;99.90;;;;;;4942767;29;20275;-72
2021/01/01 06:44:37;;;;;;;33.20;17.35;;;2.90;99.90;;;;;;4953637;28;20550;-70
2021/01/01 06:47:04;;;;;;;23.02;15.10;;;2.90;99.90;;;;;;4955450;28;20641;-72
2021/01/01 06:49:34;;;;;;;27.75;14.20;;;2.90;99.90;;;;;;4954086;28;20213;-72
2021/01/01 06:52:10;;;;;;;28.95;16.55;;;2.90;99.90;;;;;;4953510;28;20764;-72
2021/01/01 06:54:55;;;;;;;25.10;17.05;;;2.90;99.90;;;;;;4952966;29;20215;-71
2021/01/01 06:57:23;;;;;;;25.15;16.02;;;2.90;99.90;;;;;;4934162;29;20206;-72
2021/01/01 06:59:50;;;;;;;26.70;16.40;;;2.90;99.90;;;;;;4939961;29;20646;-71
2021/01/01 07:02:26;;;;;;;26.48;16.88;;;2.90;99.90;;;;;;4953525;28;20233;-72
2021/01/01 07:04:53;;;;;;;24.67;16.50;;;2.90;99.90;;;;;;4953007;28;20286;-71
2021/01/01 07:07:42;;;;;;;28.45;16.00;;;2.90;99.90;;;;;;4953232;28;20559;-72
2021/01/01 07:10:24;;;;;;;28.65;16.20;;;2.90;99.90;;;;;;4953056;28;20209;-72
2021/01/01 07:13:16;;;;;;;27.30;16.95;;;2.90;99.90;;;;;;4952926;28;20213;-72
2021/01/01 07:15:42;;;;;;;24.35;15.43;;;2.90;99.90;;;;;;4945833;29;20239;-72
2021/01/01 07:18:08;;;;;;;24.13;15.88;;;2.90;99.90;;;;;;4961410;28;20233;-72
2021/01/01 07:20:40;;;;;;;27.63;15.52;;;2.90;99.90;;;;;;4957468;28;20221;-72
2021/01/01 07:23:06;;;;;;;29.50;18.05;;;2.90;99.90;;;;;;4953834;28;20272;-72
2021/01/01 07:25:37;;;;;;;28.00;16.10;;;2.90;99.90;;;;;;4957108;28;20670;-72
2021/01/01 07:28:07;;;;;;;25.83;16.23;;;2.90;99.90;;;;;;4956277;28;20202;-72
2021/01/01 07:30:36;;;;;;;26.33;16.88;;;2.90;99.90;;;;;;4956770;28;20229;-71
2021/01/01 07:33:03;;;;;;;27.23;16.85;;;2.90;99.90;;;;;;4953029;28;20195;-72
2021/01/01 07:35:30;;;;;;;29.17;16.40;;;2.80;99.90;;;;;;4957540;28;20256;-72
2021/01/01 07:37:59;;;;;;;25.50;14.73;;;2.70;99.90;;;;;;4956892;28;20236;-72
2021/01/01 07:40:25;;;;;;;31.38;17.50;;;2.70;99.90;;;;;;4957510;28;20327;-72
2021/01/01 07:42:53;;;;;;;27.67;17.63;;;2.60;99.90;;;;;;4956057;28;20289;-71
2021/01/01 07:45:20;;;;;;;32.50;18.05;;;2.60;99.90;;;;;;4956770;29;20205;-71
2021/01/01 07:47:47;;;;;;;35.22;18.73;;;2.60;99.90;;;;;;4957340;28;20220;-71
2021/01/01 07:50:15;;;;;;;30.52;16.42;;;2.60;99.90;;;;;;4956933;28;20206;-71
2021/01/01 07:52:41;;;;;;;30.48;16.95;;;2.60;99.90;;;;;;4956579;28;20209;-71
2021/01/01 07:55:10;;;;;;;26.20;17.13;;;2.60;99.90;;;;;;4956178;29;20250;-70
2021/01/01 07:57:38;;;;;;;24.83;16.40;;;2.60;99.90;;;;;;4956400;28;20213;-71
2021/01/01 08:00:06;;;;;;;33.83;18.15;;;2.60;99.90;;;;;;4957035;28;20551;-71
2021/01/01 08:02:33;;;;;;;27.95;17.20;;;2.60;99.90;;;;;;4956383;28;20239;-71
2021/01/01 08:05:02;;;;;;;34.10;17.38;;;2.60;99.90;;;;;;4956372;28;20224;-70
2021/01/01 08:07:28;;;;;;;32.58;17.55;;;2.60;99.90;;;;;;4956743;28;20545;-71
2021/01/01 08:09:54;;;;;;;29.55;18.77;;;2.60;99.90;;;;;;4956144;28;20209;-71
2021/01/01 08:12:21;;;;;;;31.60;18.70;;;2.60;99.90;;;;;;4956188;28;20225;-71
2021/01/01 08:14:48;;;;;;;32.10;18.00;;;2.60;99.90;;;;;;4955355;28;20205;-71
2021/01/01 08:17:28;;;;;;;31.25;19.52;;;2.60;99.90;;;;;;4961230;29;20577;-73
2021/01/01 08:19:55;;;;;;;27.85;16.45;;;2.60;99.90;;;;;;4962672;28;20241;-72
2021/01/01 08:22:27;;;;;;;26.77;16.17;;;2.60;99.90;;;;;;4962606;28;20232;-72
2021/01/01 08:24:55;;;;;;;33.22;19.40;;;2.60;99.90;;;;;;4961976;28;20209;-71
2021/01/01 08:27:25;;;;;;;29.98;16.60;;;2.50;99.90;;;;;;4962580;28;20559;-72
2021/01/01 08:29:53;;;;;;;31.00;17.35;;;2.50;99.90;;;;;;4960454;28;20202;-73
2021/01/01 08:32:20;;;;;;;28.55;16.90;;;2.50;99.90;;;;;;4957265;29;20225;-70
2021/01/01 08:34:50;;;;;;;32.95;18.75;;;2.50;99.90;;;;;;4957095;28;20520;-72
2021/01/01 08:37:20;;;;;;;33.92;18.02;;;2.60;99.90;;;;;;4959482;28;20229;-72
2021/01/01 08:39:47;;;;;;;31.98;18.33;;;2.60;99.90;;;;;;4958430;28;20216;-72
2021/01/01 08:42:21;;;;;;;34.78;18.55;;;2.60;99.90;;;;;;4958928;29;20360;-73
2021/01/01 08:44:48;;;;;;;32.17;17.02;;;2.70;99.90;;;;;;4957800;28;20235;-72
2021/01/01 08:47:14;;;;;;;32.90;19.88;;;2.80;99.90;;;;;;4958235;28;20205;-69
2021/01/01 08:49:41;;;;;;;30.35;19.13;;;2.80;99.90;;;;;;4957760;28;20216;-72
2021/01/01 08:52:11;;;;;;;54.20;26.55;;;2.90;99.90;;;;;;4958900;28;20251;-72
2021/01/01 08:54:38;;;;;;;33.25;20.58;;;2.90;99.90;;;;;;4958593;28;20205;-72
2021/01/01 08:57:05;;;;;;;47.03;25.08;;;2.90;99.90;;;;;;4960888;28;20210;-73
2021/01/01 08:59:31;;;;;;;34.53;17.90;;;3.00;99.90;;;;;;4960416;28;20209;-72
2021/01/01 09:02:00;;;;;;;25.90;17.50;;;3.00;99.90;;;;;;4958104;28;20246;-73
2021/01/01 09:04:27;;;;;;;28.95;17.67;;;3.00;99.90;;;;;;4956047;28;20213;-72
2021/01/01 09:06:58;;;;;;;27.92;17.25;;;3.10;99.90;;;;;;4958324;28;20201;-72
2021/01/01 09:09:29;;;;;;;24.05;16.80;;;3.10;99.90;;;;;;4958211;28;20300;-72
2021/01/01 09:12:19;;;;;;;33.50;20.25;;;3.20;99.90;;;;;;4958023;28;20213;-72
2021/01/01 09:14:47;;;;;;;27.05;18.05;;;3.20;99.90;;;;;;4958186;28;20205;-72
2021/01/01 09:17:14;;;;;;;26.95;17.70;;;3.30;99.90;;;;;;4959649;28;20505;-72
2021/01/01 09:19:41;;;;;;;26.30;16.52;;;3.30;99.90;;;;;;4958513;28;20213;-72
2021/01/01 09:22:14;;;;;;;45.47;24.05;;;3.30;99.90;;;;;;4957987;29;20256;-72
2021/01/01 09:24:41;;;;;;;24.85;15.48;;;3.30;99.90;;;;;;4957389;28;20206;-72
2021/01/01 09:27:07;;;;;;;31.80;20.48;;;3.40;99.90;;;;;;4958012;28;20206;-72
2021/01/01 09:29:33;;;;;;;24.95;15.85;;;3.40;99.90;;;;;;4955322;28;20217;-71
2021/01/01 09:32:00;;;;;;;29.00;19.50;;;3.40;99.90;;;;;;4954704;28;20213;-71
2021/01/01 09:34:27;;;;;;;31.58;19.45;;;3.40;99.90;;;;;;4954173;29;20209;-70
2021/01/01 09:36:53;;;;;;;24.23;16.67;;;3.40;99.90;;;;;;4954707;28;20256;-71
2021/01/01 09:39:19;;;;;;;28.15;17.80;;;3.50;99.90;;;;;;4954399;28;20271;-71
2021/01/01 09:41:49;;;;;;;21.63;14.93;;;3.50;99.90;;;;;;4954775;28;20221;-71
2021/01/01 09:44:15;;;;;;;22.10;13.68;;;3.60;99.90;;;;;;4954350;28;20204;-71
2021/01/01 09:46:42;;;;;;;22.88;13.57;;;3.60;99.90;;;;;;4944199;29;20509;-72
2021/01/01 09:49:09;;;;;;;21.77;15.55;;;3.60;99.90;;;;;;4954068;28;20201;-72
2021/01/01 09:51:36;;;;;;;24.23;14.30;;;3.70;99.90;;;;;;4954700;28;20308;-72
2021/01/01 09:54:02;;;;;;;20.55;14.70;;;3.70;99.90;;;;;;4953696;28;20228;-72
2021/01/01 09:56:35;;;;;;;23.70;14.05;;;3.70;99.90;;;;;;4955548;28;20205;-72
2021/01/01 09:59:01;;;;;;;21.20;13.77;;;3.80;99.90;;;;;;4968702;28;20201;-72
2021/01/01 10:01:28;;;;;;;20.77;13.48;;;3.80;99.90;;;;;;4967823;28;20229;-73
2021/01/01 10:03:55;;;;;;;19.05;14.68;;;3.90;99.90;;;;;;4966093;29;20212;-72
2021/01/01 10:06:21;;;;;;;16.05;13.05;;;3.90;99.90;;;;;;4969041;28;20197;-73
2021/01/01 10:08:48;;;;;;;21.95;15.20;;;4.00;99.90;;;;;;4968770;29;20212;-73
2021/01/01 10:11:15;;;;;;;23.30;14.70;;;4.10;99.90;;;;;;4968811;28;20221;-72
2021/01/01 10:13:42;;;;;;;17.95;14.07;;;4.20;99.90;;;;;;4967721;29;20209;-72
2021/01/01 10:16:09;;;;;;;18.50;12.65;;;4.20;99.90;;;;;;4957448;28;20216;-72
2021/01/01 10:18:35;;;;;;;18.40;11.90;;;4.30;99.90;;;;;;4955553;28;20208;-72
2021/01/01 10:21:02;;;;;;;54.88;32.80;;;4.40;99.90;;;;;;4956159;29;20232;-72
2021/01/01 10:23:28;;;;;;;23.63;16.52;;;4.50;99.90;;;;;;4952964;28;20245;-72
2021/01/01 10:25:55;;;;;;;16.63;12.45;;;4.50;99.90;;;;;;4953934;28;20213;-72
2021/01/01 10:28:21;;;;;;;17.85;11.65;;;4.60;99.90;;;;;;4953127;28;20225;-72
2021/01/01 10:30:47;;;;;;;26.40;15.20;;;4.60;99.90;;;;;;4953703;29;20585;-71
2021/01/01 10:33:14;;;;;;;18.27;12.20;;;4.60;99.90;;;;;;4952572;28;20197;-72
2021/01/01 10:35:41;;;;;;;16.65;11.73;;;4.70;99.90;;;;;;4953039;28;20197;-72
2021/01/01 10:38:07;;;;;;;18.73;12.65;;;4.70;99.90;;;;;;4952858;28;20256;-72
2021/01/01 10:40:33;;;;;;;18.05;12.23;;;4.70;99.90;;;;;;4948051;28;20220;-72
2021/01/01 10:43:00;;;;;;;19.02;13.27;;;4.70;99.90;;;;;;4951940;28;20657;-72
2021/01/01 10:45:27;;;;;;;17.55;13.05;;;4.70;99.90;;;;;;4952357;29;20209;-72
2021/01/01 10:47:53;;;;;;;18.75;12.98;;;4.70;99.90;;;;;;4948733;29;20201;-71
2021/01/01 10:50:19;;;;;;;16.17;12.88;;;4.80;99.90;;;;;;4957905;28;20333;-74
2021/01/01 10:52:45;;;;;;;22.27;15.50;;;4.80;99.90;;;;;;4959518;28;20216;-74
2021/01/01 10:55:13;;;;;;;21.65;13.80;;;4.80;99.90;;;;;;4960854;29;20844;-73
2021/01/01 10:57:39;;;;;;;17.80;12.82;;;4.80;99.90;;;;;;4961803;28;20201;-73
2021/01/01 11:00:08;;;;;;;19.50;11.98;;;4.90;99.90;;;;;;4953601;28;20683;-70
2021/01/01 11:02:34;;;;;;;28.13;16.90;;;4.90;99.90;;;;;;4939957;29;20237;-70
2021/01/01 11:05:01;;;;;;;35.65;23.83;;;4.90;99.90;;;;;;4952566;28;20202;-70
2021/01/01 11:07:27;;;;;;;19.60;12.40;;;4.90;99.90;;;;;;4953072;28;20252;-70
2021/01/01 11:09:53;;;;;;;38.78;24.95;;;4.80;99.90;;;;;;4954777;28;20293;-70
2021/01/01 11:12:19;;;;;;;22.25;14.43;;;4.80;99.90;;;;;;4954948;28;20229;-70
2021/01/01 11:15:21;;;;;;;18.70;15.03;;;4.80;99.90;;;;;;4953852;29;21026;-71
2021/01/01 12:21:25;;;;;;;17.05;11.68;;;5.20;99.90;;;;;;4956193;28;20232;-72
2021/01/01 12:24:03;;;;;;;17.13;12.70;;;5.20;99.90;;;;;;4955040;28;20204;-72
2021/01/01 12:26:29;;;;;;;22.15;14.75;;;5.30;99.90;;;;;;4955630;28;20637;-73
2021/01/01 12:28:56;;;;;;;20.25;13.18;;;5.30;99.90;;;;;;4954818;28;20205;-71
2021/01/01 12:31:23;;;;;;;18.95;12.45;;;5.30;99.90;;;;;;4955406;28;20248;-70
2021/01/01 12:33:49;;;;;;;22.30;13.88;;;5.30;99.90;;;;;;4955199;29;20213;-71
2021/01/01 12:36:15;;;;;;;19.02;13.80;;;5.30;99.90;;;;;;4955397;28;20209;-72
2021/01/01 12:38:41;;;;;;;16.15;12.63;;;5.20;99.90;;;;;;4955154;29;20217;-71
2021/01/01 12:41:10;;;;;;;16.38;12.05;;;5.20;99.90;;;;;;4955448;28;20232;-72
2021/01/01 12:43:36;;;;;;;16.30;10.70;;;5.20;99.90;;;;;;4954421;28;20225;-71
2021/01/01 12:46:02;;;;;;;24.33;13.55;;;5.10;99.90;;;;;;4955498;29;20205;-72
2021/01/01 12:48:28;;;;;;;21.15;14.63;;;5.10;99.90;;;;;;4955117;29;20213;-72
2021/01/01 12:50:54;;;;;;;20.42;13.02;;;5.10;99.90;;;;;;4955370;28;20228;-69
2021/01/01 12:53:21;;;;;;;16.63;13.02;;;5.10;99.90;;;;;;4954281;28;20272;-69
2021/01/01 12:55:47;;;;;;;22.90;14.35;;;5.10;99.90;;;;;;4954929;28;20212;-69
2021/01/01 12:58:14;;;;;;;20.80;12.98;;;5.10;99.90;;;;;;4954551;28;20525;-68
2021/01/01 13:00:40;;;;;;;19.15;13.18;;;5.10;99.90;;;;;;4954975;28;20224;-68
2021/01/01 13:03:06;;;;;;;20.50;15.82;;;5.10;99.90;;;;;;4954013;28;20252;-69
2021/01/01 13:05:32;;;;;;;24.08;15.63;;;5.20;99.90;;;;;;4952988;29;20209;-69
2021/01/01 13:07:58;;;;;;;26.90;16.80;;;5.20;99.90;;;;;;4955226;28;20216;-69
2021/01/01 13:10:25;;;;;;;18.65;13.73;;;5.30;99.90;;;;;;4955121;29;20838;-69
2021/01/01 13:12:52;;;;;;;20.58;14.05;;;5.20;99.90;;;;;;4954562;28;20232;-69
2021/01/01 13:15:19;;;;;;;26.15;16.98;;;5.20;99.90;;;;;;4954540;29;20212;-69
2021/01/01 13:17:45;;;;;;;21.10;15.10;;;5.20;99.90;;;;;;4954951;28;20206;-69
2021/01/01 13:20:12;;;;;;;23.00;14.38;;;5.20;99.90;;;;;;4954657;28;20567;-70
2021/01/01 13:22:39;;;;;;;24.05;15.77;;;5.20;99.90;;;;;;4954412;28;20241;-69
2021/01/01 13:25:06;;;;;;;22.58;14.38;;;5.20;99.90;;;;;;4953909;28;20217;-69
2021/01/01 13:27:32;;;;;;;23.88;13.88;;;5.20;99.90;;;;;;4954972;28;20209;-70
2021/01/01 13:29:58;;;;;;;18.10;14.25;;;5.20;99.90;;;;;;4954175;28;20209;-70
2021/01/01 13:32:25;;;;;;;19.45;14.40;;;5.20;99.90;;;;;;4954142;28;20225;-70
2021/01/01 13:34:51;;;;;;;21.42;14.82;;;5.20;99.90;;;;;;4954129;28;20584;-70
2021/01/01 13:37:18;;;;;;;25.77;16.67;;;5.20;99.90;;;;;;4953973;28;20563;-72
2021/01/01 13:39:44;;;;;;;22.23;15.25;;;5.20;99.90;;;;;;4954270;28;20209;-70
2021/01/01 13:42:15;;;;;;;24.25;15.98;;;5.20;99.90;;;;;;4954581;28;20252;-70
2021/01/01 13:44:41;;;;;;;32.60;20.15;;;5.20;99.90;;;;;;4954145;28;20664;-70
2021/01/01 13:47:08;;;;;;;26.73;16.58;;;5.10;99.90;;;;;;4954792;28;20205;-70
2021/01/01 13:49:35;;;;;;;23.40;17.17;;;5.10;99.90;;;;;;4935464;29;20213;-70
2021/01/01 13:52:02;;;;;;;28.90;20.92;;;5.10;99.90;;;;;;4937399;29;20245;-70
2021/01/01 13:54:28;;;;;;;26.10;19.10;;;5.00;99.90;;;;;;4955332;28;20209;-70
2021/01/01 13:56:54;;;;;;;29.80;22.73;;;5.00;99.90;;;;;;4960923;28;20201;-74
2021/01/01 13:59:20;;;;;;;28.02;19.15;;;5.00;99.90;;;;;;4959838;28;20209;-73
2021/01/01 14:01:46;;;;;;;24.75;18.60;;;5.00;99.90;;;;;;4959536;28;20240;-73
2021/01/01 14:04:12;;;;;;;24.25;16.27;;;5.00;99.90;;;;;;4959080;28;20210;-73
2021/01/01 14:06:40;;;;;;;24.33;16.10;;;5.00;99.90;;;;;;4961261;28;20711;-73
2021/01/01 14:09:06;;;;;;;28.33;15.80;;;5.00;99.90;;;;;;4961162;28;20243;-72
2021/01/01 14:11:32;;;;;;;26.08;17.02;;;5.00;99.90;;;;;;4953745;28;20225;-72
2021/01/01 14:13:59;;;;;;;34.97;22.77;;;5.00;99.90;;;;;;4953165;29;20197;-72
2021/01/01 14:16:25;;;;;;;26.60;16.80;;;5.00;99.90;;;;;;4953044;28;20213;-72
2021/01/01 14:18:51;;;;;;;87.00;41.15;;;4.90;99.90;;;;;;4953657;28;20205;-72
2021/01/01 14:21:26;;;;;;;42.53;25.75;;;4.90;99.90;;;;;;4946286;28;20221;-73
2021/01/01 14:23:53;;;;;;;28.95;16.80;;;4.90;99.90;;;;;;4951194;28;20231;-72
2021/01/01 14:26:19;;;;;;;25.73;16.25;;;4.90;99.90;;;;;;4953818;28;20534;-72
2021/01/01 14:28:46;;;;;;;27.42;16.67;;;4.90;99.90;;;;;;4953920;29;20220;-72
2021/01/01 14:31:12;;;;;;;26.80;16.92;;;4.90;99.90;;;;;;4953871;28;20221;-72
2021/01/01 14:33:38;;;;;;;22.23;15.20;;;4.90;99.90;;;;;;4953107;28;20201;-73
2021/01/01 14:36:05;;;;;;;29.10;20.20;;;4.90;99.90;;;;;;4954454;29;20272;-73
2021/01/01 14:38:31;;;;;;;26.90;17.85;;;4.90;99.90;;;;;;4955800;28;20231;-73
2021/01/01 14:40:58;;;;;;;29.85;21.27;;;4.80;99.90;;;;;;4954779;28;20643;-73
2021/01/01 14:43:24;;;;;;;28.02;17.83;;;4.80;99.90;;;;;;4955114;28;20231;-71
2021/01/01 14:45:50;;;;;;;28.23;19.52;;;4.80;99.90;;;;;;4955113;28;20201;-69
2021/01/01 14:48:17;;;;;;;29.70;18.33;;;4.80;99.90;;;;;;4951053;28;20220;-70
2021/01/01 14:50:43;;;;;;;28.20;18.10;;;4.80;99.90;;;;;;4950588;28;20674;-70
2021/01/01 14:53:09;;;;;;;36.97;18.30;;;4.80;99.90;;;;;;4950174;28;20202;-69
2021/01/01 14:55:35;;;;;;;26.17;16.52;;;4.80;99.90;;;;;;4949528;28;20537;-69
2021/01/01 14:58:02;;;;;;;22.75;15.85;;;4.80;99.90;;;;;;4950591;28;20213;-69
2021/01/01 15:00:28;;;;;;;26.05;17.60;;;4.80;99.90;;;;;;4949604;28;20673;-69
2021/01/01 15:02:55;;;;;;;29.05;16.73;;;4.80;99.90;;;;;;4950148;28;20225;-69
2021/01/01 15:05:21;;;;;;;23.83;16.42;;;4.70;99.90;;;;;;4956948;29;20281;-73
2021/01/01 15:07:47;;;;;;;25.10;17.60;;;4.70;99.90;;;;;;4957621;28;20208;-72
2021/01/01 15:10:13;;;;;;;26.38;15.38;;;4.70;99.90;;;;;;4952020;29;20222;-73
2021/01/01 15:12:39;;;;;;;23.23;16.77;;;4.70;99.90;;;;;;4951556;29;20205;-69
2021/01/01 15:15:07;;;;;;;23.70;14.20;;;4.70;99.90;;;;;;4949788;28;20212;-70
2021/01/01 15:17:34;;;;;;;26.52;14.68;;;4.70;99.90;;;;;;4948458;28;20209;-70
2021/01/01 15:20:00;;;;;;;18.67;14.25;;;4.70;99.90;;;;;;4949444;28;20205;-70
2021/01/01 15:22:26;;;;;;;23.90;15.52;;;4.70;99.90;;;;;;4948330;28;20233;-70
2021/01/01 15:24:52;;;;;;;21.58;14.38;;;4.70;99.90;;;;;;4950264;28;20221;-70
2021/01/01 15:27:18;;;;;;;22.10;15.75;;;4.60;99.90;;;;;;4949612;28;20209;-70
2021/01/01 15:29:44;;;;;;;31.50;19.80;;;4.70;99.90;;;;;;4949413;28;20700;-72
2021/01/01 15:32:12;;;;;;;22.88;15.90;;;4.60;99.90;;;;;;4949222;28;20236;-71
2021/01/01 15:34:38;;;;;;;29.27;23.67;;;4.60;99.90;;;;;;4950217;28;20218;-70
2021/01/01 15:37:04;;;;;;;31.80;20.40;;;4.60;99.90;;;;;;4950004;28;20595;-72
2021/01/01 15:39:30;;;;;;;24.92;16.92;;;4.70;99.90;;;;;;4949443;28;20267;-71
2021/01/01 15:41:56;;;;;;;26.85;16.17;;;4.60;99.90;;;;;;4949500;28;20249;-70
2021/01/01 15:44:23;;;;;;;27.48;17.95;;;4.60;99.90;;;;;;4930766;29;20225;-70
2021/01/01 15:46:49;;;;;;;40.08;22.75;;;4.60;99.90;;;;;;4943007;29;20205;-70
2021/01/01 15:49:16;;;;;;;51.30;26.92;;;4.60;99.90;;;;;;4949656;28;20209;-70
2021/01/01 15:51:43;;;;;;;31.83;18.02;;;4.60;99.90;;;;;;4949067;28;20228;-69
2021/01/01 15:54:10;;;;;;;27.00;19.10;;;4.50;99.90;;;;;;4949743;28;20232;-70
2021/01/01 15:56:36;;;;;;;45.47;26.73;;;4.50;99.90;;;;;;4953083;28;20213;-73
2021/01/01 15:59:02;;;;;;;50.25;26.42;;;4.50;99.90;;;;;;4953467;28;20210;-72
2021/01/01 16:01:29;;;;;;;32.88;22.52;;;4.50;99.90;;;;;;4953568;28;20241;-73
2021/01/01 16:03:55;;;;;;;46.55;23.83;;;4.50;99.90;;;;;;4959463;28;20244;-71
2021/01/01 16:06:22;;;;;;;33.00;20.90;;;4.50;99.90;;;;;;4957972;28;20225;-71
2021/01/01 16:08:48;;;;;;;49.08;27.60;;;4.60;99.90;;;;;;4956810;29;20209;-71
2021/01/01 16:11:14;;;;;;;47.00;25.98;;;4.50;99.90;;;;;;4955177;28;20232;-71
2021/01/01 16:13:40;;;;;;;49.80;30.10;;;4.50;99.90;;;;;;4955460;28;20212;-70
2021/01/01 16:16:06;;;;;;;98.25;50.55;;;4.50;99.90;;;;;;4955351;28;20212;-70
2021/01/01 16:18:33;;;;;;;69.32;36.53;;;4.50;99.90;;;;;;4955404;28;20217;-70
2021/01/01 16:20:59;;;;;;;35.35;22.13;;;4.60;99.90;;;;;;4954507;28;20240;-70
2021/01/01 16:23:26;;;;;;;67.38;35.55;;;4.60;99.90;;;;;;4954794;28;20593;-71
2021/01/01 16:25:52;;;;;;;57.53;32.08;;;4.60;99.90;;;;;;4947405;28;20565;-71
2021/01/01 16:28:18;;;;;;;102.25;44.08;;;4.50;99.90;;;;;;4948407;28;20209;-71
2021/01/01 16:30:44;;;;;;;47.13;25.13;;;4.60;99.90;;;;;;4952691;28;20237;-71
2021/01/01 16:33:11;;;;;;;65.90;31.05;;;4.50;99.90;;;;;;4954780;28;20209;-72
2021/01/01 16:35:37;;;;;;;53.05;29.63;;;4.50;99.90;;;;;;4955412;28;20201;-72
2021/01/01 16:38:03;;;;;;;54.80;30.23;;;4.50;99.90;;;;;;4955598;28;20232;-71
2021/01/01 16:40:30;;;;;;;56.08;29.08;;;4.50;99.90;;;;;;4954417;28;20233;-71
2021/01/01 16:42:57;;;;;;;43.50;26.55;;;4.50;99.90;;;;;;4957555;28;20263;-71
2021/01/01 16:45:23;;;;;;;28.23;16.90;;;4.50;99.90;;;;;;4954023;28;20580;-72
2021/01/01 16:47:50;;;;;;;33.28;21.30;;;4.50;99.90;;;;;;4954288;29;20309;-72
2021/01/01 16:50:17;;;;;;;34.85;21.85;;;4.50;99.90;;;;;;4954687;28;20213;-71
2021/01/01 16:52:48;;;;;;;26.33;16.65;;;4.50;99.90;;;;;;4950596;28;20213;-71
2021/01/01 16:55:16;;;;;;;38.92;25.05;;;4.50;99.90;;;;;;4943927;28;20639;-71
2021/01/01 16:57:43;;;;;;;27.65;18.23;;;4.50;99.90;;;;;;4955261;28;20665;-71
2021/01/01 17:00:10;;;;;;;26.73;19.50;;;4.50;99.90;;;;;;4954165;28;20238;-72
2021/01/01 17:02:37;;;;;;;25.63;16.30;;;4.50;99.90;;;;;;4954598;28;20237;-71
2021/01/01 17:05:03;;;;;;;30.85;18.48;;;4.60;99.90;;;;;;4954950;28;20256;-71
2021/01/01 17:07:29;;;;;;;27.10;16.45;;;4.50;99.90;;;;;;4953260;28;20206;-72
2021/01/01 17:09:56;;;;;;;47.40;29.23;;;4.50;99.90;;;;;;4952415;28;20308;-71
2021/01/01 17:12:22;;;;;;;34.05;23.00;;;4.50;99.90;;;;;;4953986;29;20221;-71
2021/01/01 17:14:50;;;;;;;23.13;16.48;;;4.50;99.90;;;;;;4955490;28;20666;-72
2021/01/01 17:17:16;;;;;;;26.55;15.40;;;4.50;99.90;;;;;;4962968;28;20217;-74
2021/01/01 17:19:43;;;;;;;18.80;13.98;;;4.50;99.90;;;;;;4962937;28;20214;-74
2021/01/01 17:22:09;;;;;;;33.17;20.48;;;4.50;99.90;;;;;;4961938;28;20237;-74
2021/01/01 17:24:37;;;;;;;24.05;15.75;;;4.50;99.90;;;;;;4959804;28;20209;-70
2021/01/01 17:27:04;;;;;;;24.58;14.10;;;4.50;99.90;;;;;;4953699;28;20213;-69
2021/01/01 17:29:31;;;;;;;20.00;13.10;;;4.50;99.90;;;;;;4950731;28;20243;-70
2021/01/01 17:31:59;;;;;;;17.23;12.82;;;4.50;99.90;;;;;;4951568;28;20224;-70
2021/01/01 17:34:25;;;;;;;18.25;12.98;;;4.50;99.90;;;;;;4953180;28;20216;-69
2021/01/01 17:36:51;;;;;;;19.63;14.23;;;4.50;99.90;;;;;;4954141;29;20198;-70
2021/01/01 17:39:17;;;;;;;17.67;12.73;;;4.50;99.90;;;;;;4953198;28;20290;-69
2021/01/01 17:41:43;;;;;;;19.85;13.40;;;4.50;99.90;;;;;;4953210;28;20225;-70
2021/01/01 17:44:10;;;;;;;32.08;17.23;;;4.50;99.90;;;;;;4953256;29;20229;-70
2021/01/01 17:46:36;;;;;;;20.33;12.85;;;4.50;99.90;;;;;;4948587;28;20312;-70
2021/01/01 17:49:03;;;;;;;21.88;14.20;;;4.50;99.90;;;;;;4953235;28;20205;-70
2021/01/01 17:51:29;;;;;;;33.90;18.00;;;4.50;99.90;;;;;;4953694;28;20233;-71
2021/01/01 17:53:55;;;;;;;27.85;14.30;;;4.50;99.90;;;;;;4953037;29;20208;-69
2021/01/01 17:56:21;;;;;;;23.33;14.25;;;4.50;99.90;;;;;;4952949;28;20213;-70
2021/01/01 17:58:48;;;;;;;23.13;14.30;;;4.50;99.90;;;;;;4953053;29;20232;-70
2021/01/01 18:01:15;;;;;;;24.33;15.93;;;4.50;99.90;;;;;;4953518;28;20292;-70
2021/01/01 18:03:41;;;;;;;23.13;13.80;;;4.50;99.90;;;;;;4953238;28;20665;-70
2021/01/01 18:06:09;;;;;;;22.00;14.90;;;4.50;99.90;;;;;;4953457;28;20201;-70
2021/01/01 18:08:35;;;;;;;22.92;14.45;;;4.50;99.90;;;;;;4954197;28;20209;-70
2021/01/01 18:11:02;;;;;;;23.42;15.13;;;4.50;99.90;;;;;;4953123;28;20225;-70
2021/01/01 18:13:28;;;;;;;23.70;14.52;;;4.50;99.90;;;;;;4953684;28;20584;-72
2021/01/01 18:15:54;;;;;;;19.80;14.40;;;4.50;99.90;;;;;;4951931;28;20233;-72
2021/01/01 18:18:21;;;;;;;21.55;14.85;;;4.50;99.90;;;;;;4952749;28;20267;-71
2021/01/01 18:20:49;;;;;;;32.00;17.73;;;4.50;99.90;;;;;;4967528;28;20279;-71
2021/01/01 18:23:31;;;;;;;24.40;15.40;;;4.50;99.90;;;;;;4944469;29;20291;-72
2021/01/01 18:25:58;;;;;;;25.58;14.88;;;4.50;99.90;;;;;;4952469;28;20219;-71
2021/01/01 18:28:24;;;;;;;19.58;15.68;;;4.50;99.90;;;;;;4940704;29;20296;-72
2021/01/01 18:30:52;;;;;;;26.85;15.48;;;4.50;99.90;;;;;;4950152;28;20735;-72
2021/01/01 18:33:21;;;;;;;25.63;15.95;;;4.50;99.90;;;;;;4952490;29;20201;-71
2021/01/01 18:35:54;;;;;;;34.03;21.33;;;4.50;99.90;;;;;;4951789;28;20208;-71
2021/01/01 18:38:24;;;;;;;21.48;14.15;;;4.50;99.90;;;;;;4953472;28;20221;-74
2021/01/01 18:40:55;;;;;;;25.80;14.85;;;4.50;99.90;;;;;;4953721;28;20265;-73
2021/01/01 18:43:26;;;;;;;21.10;13.90;;;4.50;99.90;;;;;;4952959;28;20217;-71